createdAt,value
2022-09-27T00:01:49.705Z,0.47
2022-09-27T00:04:16.431Z,0.50
2022-09-27T00:06:43.168Z,0.37
2022-09-27T00:09:10.458Z,0.43
2022-09-27T00:11:40.288Z,0.40
2022-09-27T00:14:08.187Z,0.40
2022-09-27T00:16:37.272Z,0.47
2022-09-27T00:19:11.260Z,0.40
2022-09-27T00:21:38.150Z,0.57
2022-09-27T00:24:05.241Z,0.50
2022-09-27T00:26:32.565Z,0.40
2022-09-27T00:28:59.612Z,0.50
2022-09-27T00:31:29.946Z,0.50
2022-09-27T00:33:59.179Z,0.40
2022-09-27T00:36:27.133Z,0.40
2022-09-27T00:38:54.662Z,0.40
2022-09-27T00:41:26.662Z,0.60
2022-09-27T00:43:58.903Z,0.50
2022-09-27T00:46:33.897Z,0.53
2022-09-27T00:49:22.142Z,0.50
2022-09-27T00:51:54.704Z,0.40
2022-09-27T00:54:24.688Z,0.43
2022-09-27T00:56:52.336Z,0.40
2022-09-27T00:59:35.539Z,0.70
2022-09-27T01:02:04.740Z,0.77
2022-09-27T01:04:32.914Z,0.60
2022-09-27T01:07:00.175Z,0.60
2022-09-27T01:09:27.287Z,0.40
2022-09-27T01:12:08.664Z,0.50
2022-09-27T01:14:55.521Z,0.30
2022-09-27T01:17:31.227Z,0.40
2022-09-27T01:20:31.317Z,0.20
2022-09-27T01:23:09.853Z,0.40
2022-09-27T01:25:59.500Z,0.20
2022-09-27T01:28:33.026Z,0.40
2022-09-27T01:31:19.807Z,0.30
2022-09-27T01:34:15.721Z,0.27
2022-09-27T01:37:16.114Z,0.50
2022-09-27T01:40:17.850Z,0.30
2022-09-27T01:43:08.675Z,0.30
2022-09-27T01:45:59.171Z,0.20
2022-09-27T01:48:33.092Z,0.53
2022-09-27T01:51:14.771Z,0.30
2022-09-27T01:53:48.118Z,0.27
2022-09-27T01:56:32.919Z,0.30
2022-09-27T01:59:25.964Z,0.10
2022-09-27T02:01:54.027Z,0.20
2022-09-27T02:04:26.624Z,0.20
2022-09-27T02:07:03.892Z,0.30
2022-09-27T02:09:48.319Z,0.30
2022-09-27T02:12:19.015Z,0.20
2022-09-27T02:14:52.901Z,0.20
2022-09-27T02:17:31.110Z,0.20
2022-09-27T02:20:18.640Z,0.20
2022-09-27T02:22:51.101Z,0.27
2022-09-27T02:25:26.879Z,0.30
2022-09-27T02:28:19.795Z,0.17
2022-09-27T02:30:46.565Z,0.20
2022-09-27T02:33:13.377Z,0.60
2022-09-27T02:35:40.169Z,0.27
2022-09-27T02:38:08.152Z,0.30
2022-09-27T02:40:42.129Z,0.20
2022-09-27T02:43:09.022Z,0.30
2022-09-27T02:46:02.678Z,0.30
2022-09-27T02:48:48.049Z,0.30
2022-09-27T02:51:41.180Z,0.33
2022-09-27T02:54:35.875Z,0.30
2022-09-27T02:57:25.198Z,0.30
2022-09-27T03:00:09.977Z,0.30
2022-09-27T03:02:39.526Z,0.40
2022-09-27T03:05:11.181Z,0.20
2022-09-27T03:07:38.623Z,0.20
2022-09-27T03:10:06.228Z,0.20
2022-09-27T03:12:33.671Z,0.20
2022-09-27T03:15:00.871Z,0.23
2022-09-27T03:17:27.608Z,0.20
2022-09-27T03:19:54.275Z,0.30
2022-09-27T03:22:20.923Z,0.20
2022-09-27T03:24:47.727Z,0.10
2022-09-27T03:27:14.513Z,0.17
2022-09-27T03:29:41.147Z,0.20
2022-09-27T03:32:07.879Z,0.13
2022-09-27T03:34:34.555Z,0.30
2022-09-27T03:37:02.034Z,0.30
2022-09-27T03:39:28.725Z,0.20
2022-09-27T03:41:55.416Z,0.40
2022-09-27T03:44:22.076Z,0.30
2022-09-27T03:46:48.887Z,0.30
2022-09-27T03:49:15.708Z,0.20
2022-09-27T03:51:42.575Z,0.47
2022-09-27T03:54:09.856Z,0.30
2022-09-27T03:56:36.507Z,0.40
2022-09-27T03:59:03.613Z,0.40
2022-09-27T04:01:30.510Z,0.50
2022-09-27T04:03:57.263Z,0.40
2022-09-27T04:06:24.047Z,0.50
2022-09-27T04:08:50.708Z,0.77
2022-09-27T04:11:17.498Z,0.80
2022-09-27T04:13:44.476Z,0.67
2022-09-27T04:16:11.271Z,0.70
2022-09-27T04:18:38.101Z,0.60
2022-09-27T04:21:04.871Z,0.60
2022-09-27T04:23:31.535Z,0.60
2022-09-27T04:25:58.281Z,0.70
2022-09-27T04:28:25.067Z,0.60
2022-09-27T04:30:51.750Z,0.73
2022-09-27T04:33:18.482Z,0.63
2022-09-27T04:36:03.695Z,0.57
2022-09-27T04:38:30.405Z,0.60
2022-09-27T04:40:57.113Z,0.77
2022-09-27T04:43:23.963Z,1.00
2022-09-27T04:45:50.671Z,0.90
2022-09-27T04:48:17.420Z,0.80
2022-09-27T04:50:44.067Z,0.73
2022-09-27T04:53:15.053Z,0.90
2022-09-27T04:55:48.427Z,0.90
2022-09-27T04:58:15.056Z,1.13
2022-09-27T05:00:45.442Z,1.27
2022-09-27T05:03:12.224Z,1.00
2022-09-27T05:05:38.964Z,1.00
2022-09-27T05:08:05.662Z,0.90
2022-09-27T05:10:32.337Z,0.93
2022-09-27T05:12:59.143Z,1.07
2022-09-27T05:15:25.904Z,0.97
2022-09-27T05:17:52.691Z,1.00
2022-09-27T05:20:19.701Z,1.10
2022-09-27T05:22:46.561Z,0.83
2022-09-27T05:25:13.305Z,0.77
2022-09-27T05:27:40.883Z,0.80
2022-09-27T05:30:08.154Z,0.97
2022-09-27T05:32:35.639Z,0.80
2022-09-27T05:35:02.397Z,0.80
2022-09-27T05:37:32.086Z,0.73
2022-09-27T05:39:58.756Z,0.73
2022-09-27T05:42:25.502Z,0.80
2022-09-27T05:44:52.262Z,0.60
2022-09-27T05:47:18.968Z,0.80
2022-09-27T05:49:45.600Z,0.80
2022-09-27T05:52:15.140Z,0.90
2022-09-27T05:54:43.575Z,0.97
2022-09-27T05:57:10.232Z,0.97
2022-09-27T05:59:36.867Z,0.70
2022-09-27T06:02:03.737Z,0.77
2022-09-27T06:04:30.518Z,0.87
2022-09-27T06:06:58.937Z,0.80
2022-09-27T06:09:27.353Z,0.60
2022-09-27T06:11:54.068Z,0.90
2022-09-27T06:14:20.856Z,0.93
2022-09-27T06:16:48.192Z,0.93
2022-09-27T06:19:15.389Z,0.97
2022-09-27T06:21:42.076Z,0.80
2022-09-27T06:24:08.960Z,0.70
2022-09-27T06:26:36.209Z,0.73
2022-09-27T06:29:02.908Z,1.50
2022-09-27T06:31:29.556Z,0.60
2022-09-27T06:33:56.190Z,0.70
2022-09-27T06:36:23.072Z,0.77
2022-09-27T06:38:49.778Z,0.70
2022-09-27T06:41:16.450Z,0.60
2022-09-27T06:43:43.204Z,0.40
2022-09-27T06:46:09.969Z,0.47
2022-09-27T06:48:39.298Z,0.40
2022-09-27T06:51:06.136Z,0.40
2022-09-27T06:53:33.007Z,0.53
2022-09-27T06:56:01.308Z,0.50
2022-09-27T06:58:47.315Z,0.30
2022-09-27T07:01:14.643Z,0.40
2022-09-27T07:03:44.440Z,0.30
2022-09-27T07:06:22.851Z,0.40
2022-09-27T07:08:51.756Z,0.40
2022-09-27T07:11:19.167Z,0.40
2022-09-27T07:13:45.899Z,0.40
2022-09-27T07:16:13.969Z,0.30
2022-09-27T07:18:41.755Z,0.40
2022-09-27T07:21:12.532Z,0.30
2022-09-27T07:23:39.477Z,0.50
2022-09-27T07:26:07.113Z,0.10
2022-09-27T07:28:34.630Z,0.20
2022-09-27T07:31:02.728Z,0.27
2022-09-27T07:33:30.852Z,0.23
2022-09-27T07:35:57.614Z,0.23
2022-09-27T07:38:24.770Z,0.10
2022-09-27T07:40:51.806Z,0.13
2022-09-27T07:43:19.572Z,0.20
2022-09-27T07:45:46.980Z,0.20
2022-09-27T07:48:15.542Z,0.40
2022-09-27T07:50:42.399Z,0.30
2022-09-27T07:53:12.719Z,0.20
2022-09-27T07:55:39.846Z,0.10
2022-09-27T07:58:09.146Z,0.17
2022-09-27T08:00:37.219Z,0.10
2022-09-27T08:03:09.127Z,0.20
2022-09-27T08:05:36.583Z,0.30
2022-09-27T08:08:04.439Z,0.10
2022-09-27T08:10:32.974Z,0.20
2022-09-27T08:13:03.506Z,0.30
2022-09-27T08:15:41.269Z,0.10
2022-09-27T08:18:11.623Z,0.40
2022-09-27T08:20:38.437Z,0.30
2022-09-27T08:23:05.199Z,1.07
2022-09-27T08:25:31.912Z,0.20
2022-09-27T08:28:00.668Z,0.10
2022-09-27T08:30:31.128Z,0.30
2022-09-27T08:32:59.700Z,0.20
2022-09-27T08:35:29.113Z,0.20
2022-09-27T08:37:58.989Z,0.20
2022-09-27T08:40:39.246Z,0.40
2022-09-27T08:43:05.945Z,0.23
2022-09-27T08:45:42.857Z,0.10
2022-09-27T08:48:10.448Z,0.33
2022-09-27T08:50:42.749Z,0.20
2022-09-27T08:53:30.829Z,0.30
2022-09-27T08:55:59.884Z,0.20
2022-09-27T08:58:33.657Z,0.20
2022-09-27T09:01:03.389Z,0.20
2022-09-27T09:03:35.279Z,0.30
2022-09-27T09:06:24.829Z,0.10
2022-09-27T09:09:12.696Z,0.20
2022-09-27T09:12:37.745Z,0.20
2022-09-27T09:15:15.629Z,0.30
2022-09-27T09:18:04.902Z,0.20
2022-09-27T09:20:43.555Z,0.10
2022-09-27T09:23:19.096Z,0.20
2022-09-27T09:26:05.509Z,0.10
2022-09-27T09:28:35.009Z,0.00
2022-09-27T09:31:21.035Z,0.13
2022-09-27T09:33:58.059Z,0.20
2022-09-27T09:36:34.626Z,0.20
2022-09-27T09:39:36.076Z,0.10
2022-09-27T09:42:06.300Z,0.23
2022-09-27T09:44:54.153Z,0.10
2022-09-27T09:47:35.631Z,0.13
2022-09-27T09:50:18.169Z,0.30
2022-09-27T09:52:59.458Z,0.10
2022-09-27T09:55:33.501Z,0.20
2022-09-27T09:58:19.755Z,0.30
2022-09-27T10:00:48.233Z,0.40
2022-09-27T10:03:14.972Z,0.27
2022-09-27T10:05:45.055Z,0.30
2022-09-27T10:08:21.442Z,0.60
2022-09-27T10:10:48.336Z,0.80
2022-09-27T10:13:20.680Z,0.47
2022-09-27T10:16:09.990Z,0.40
2022-09-27T10:18:45.136Z,0.40
2022-09-27T10:21:25.712Z,0.40
2022-09-27T10:24:10.430Z,0.33
2022-09-27T10:26:43.236Z,0.40
2022-09-27T10:29:37.338Z,0.70
2022-09-27T10:32:11.960Z,0.30
2022-09-27T10:34:42.072Z,0.40
2022-09-27T10:37:26.881Z,0.50
2022-09-27T10:39:53.661Z,0.20
2022-09-27T10:42:35.460Z,0.50
2022-09-27T10:45:30.966Z,0.70
2022-09-27T10:47:59.901Z,0.30
2022-09-27T10:50:49.551Z,0.47
2022-09-27T10:53:20.605Z,0.40
2022-09-27T10:55:50.021Z,0.33
2022-09-27T10:58:33.301Z,0.33
2022-09-27T11:01:09.027Z,0.40
2022-09-27T11:03:58.304Z,0.50
2022-09-27T11:06:24.965Z,0.50
2022-09-27T11:08:53.063Z,0.40
2022-09-27T11:11:23.977Z,0.50
2022-09-27T11:14:07.511Z,0.57
2022-09-27T11:16:58.097Z,0.40
2022-09-27T11:19:45.742Z,0.60
2022-09-27T11:22:18.504Z,0.40
2022-09-27T11:25:16.907Z,0.40
2022-09-27T11:27:54.980Z,0.60
2022-09-27T11:30:23.843Z,0.70
2022-09-27T11:33:09.090Z,0.40
2022-09-27T11:35:51.065Z,0.50
2022-09-27T11:38:50.961Z,0.67
2022-09-27T11:41:31.016Z,0.40
2022-09-27T11:44:21.141Z,0.50
2022-09-27T11:47:12.704Z,0.43
2022-09-27T11:50:04.455Z,0.50
2022-09-27T11:52:49.541Z,0.40
2022-09-27T11:55:22.677Z,0.60
2022-09-27T11:58:02.483Z,0.40
2022-09-27T12:00:39.475Z,0.70
2022-09-27T12:03:28.878Z,0.80
2022-09-27T12:06:07.653Z,0.67
2022-09-27T12:09:03.427Z,0.70
2022-09-27T12:11:40.846Z,0.60
2022-09-27T12:14:16.709Z,0.70
2022-09-27T12:16:44.346Z,0.60
2022-09-27T12:19:36.757Z,0.40
2022-09-27T12:22:07.179Z,0.47
2022-09-27T12:24:34.471Z,0.40
2022-09-27T12:27:14.891Z,0.60
2022-09-27T12:29:43.394Z,0.50
2022-09-27T12:32:19.257Z,0.50
2022-09-27T12:35:11.538Z,0.70
2022-09-27T12:37:44.818Z,0.70
2022-09-27T12:40:31.500Z,0.70
2022-09-27T12:43:10.457Z,0.70
2022-09-27T12:45:51.475Z,0.60
2022-09-27T12:48:43.090Z,0.60
2022-09-27T12:51:15.365Z,0.57
2022-09-27T12:53:48.087Z,0.50
2022-09-27T12:56:59.301Z,0.63
2022-09-27T12:59:28.676Z,0.60
2022-09-27T13:02:27.016Z,0.70
2022-09-27T13:05:23.850Z,0.77
2022-09-27T13:08:27.768Z,0.77
2022-09-27T13:11:18.551Z,0.70
2022-09-27T13:13:45.870Z,0.80
2022-09-27T13:16:12.770Z,0.50
2022-09-27T13:18:52.974Z,0.40
2022-09-27T13:21:51.084Z,0.30
2022-09-27T13:24:39.254Z,0.40
2022-09-27T13:27:27.707Z,0.40
2022-09-27T13:30:09.714Z,0.57
2022-09-27T13:32:37.039Z,0.47
2022-09-27T13:35:33.523Z,0.40
2022-09-27T13:38:00.614Z,0.50
2022-09-27T13:40:30.458Z,0.57
2022-09-27T13:43:13.131Z,0.30
2022-09-27T13:45:50.320Z,0.50
2022-09-27T13:48:26.355Z,0.47
2022-09-27T13:51:06.298Z,0.30
2022-09-27T13:53:39.890Z,0.40
2022-09-27T13:56:26.986Z,0.80
2022-09-27T13:59:01.293Z,0.30
2022-09-27T14:01:35.968Z,0.30
2022-09-27T14:04:18.180Z,0.40
2022-09-27T14:06:49.065Z,0.30
2022-09-27T14:09:21.002Z,0.20
2022-09-27T14:11:55.344Z,0.30
2022-09-27T14:14:28.942Z,0.40
2022-09-27T14:16:58.201Z,0.50
2022-09-27T14:19:26.037Z,0.40
2022-09-27T14:21:53.408Z,0.47
2022-09-27T14:24:33.158Z,0.20
2022-09-27T14:27:23.911Z,0.20
2022-09-27T14:30:00.912Z,0.40
2022-09-27T14:32:33.952Z,0.30
2022-09-27T14:35:07.433Z,0.20
2022-09-27T14:37:36.349Z,0.40
2022-09-27T14:40:07.990Z,0.37
2022-09-27T14:42:36.991Z,0.30
2022-09-27T14:45:23.169Z,0.30
2022-09-27T14:47:51.496Z,0.50
2022-09-27T14:50:29.433Z,0.70
2022-09-27T14:53:01.695Z,0.57
2022-09-27T14:55:30.919Z,0.50
2022-09-27T14:58:04.584Z,0.53
2022-09-27T15:00:36.917Z,0.50
2022-09-27T15:03:06.252Z,0.40
2022-09-27T15:05:34.569Z,0.30
2022-09-27T15:08:05.969Z,0.30
2022-09-27T15:10:35.525Z,0.30
2022-09-27T15:13:04.833Z,0.30
2022-09-27T15:15:35.093Z,0.27
2022-09-27T15:18:03.289Z,0.47
2022-09-27T15:20:35.255Z,0.20
2022-09-27T15:23:04.197Z,0.20
2022-09-27T15:25:43.323Z,0.20
2022-09-27T15:28:18.209Z,0.40
2022-09-27T15:30:57.034Z,0.17
2022-09-27T15:33:32.408Z,0.27
2022-09-27T15:36:03.586Z,0.30
2022-09-27T15:38:40.503Z,0.27
2022-09-27T15:41:18.688Z,0.40
2022-09-27T15:43:47.715Z,0.20
2022-09-27T15:46:34.013Z,0.20
2022-09-27T15:49:33.565Z,0.23
2022-09-27T15:52:02.921Z,0.33
2022-09-27T15:54:33.163Z,0.20
2022-09-27T15:57:04.423Z,0.50
2022-09-27T15:59:34.436Z,0.70
2022-09-27T16:02:14.269Z,0.50
2022-09-27T16:04:40.983Z,0.60
2022-09-27T16:07:09.843Z,0.40
2022-09-27T16:09:36.900Z,0.40
2022-09-27T16:12:03.588Z,0.30
2022-09-27T16:14:30.301Z,0.40
2022-09-27T16:17:00.686Z,0.40
2022-09-27T16:19:27.624Z,0.13
2022-09-27T16:21:54.358Z,0.30
2022-09-27T16:24:21.056Z,0.50
2022-09-27T16:26:47.729Z,0.53
2022-09-27T16:29:15.863Z,0.80
2022-09-27T16:31:44.258Z,0.70
2022-09-27T16:34:11.740Z,0.87
2022-09-27T16:36:39.225Z,0.80
2022-09-27T16:39:13.316Z,0.60
2022-09-27T16:41:43.631Z,0.60
2022-09-27T16:44:12.854Z,0.70
2022-09-27T16:46:41.518Z,0.60
2022-09-27T16:49:28.833Z,0.60
2022-09-27T16:52:01.679Z,0.83
2022-09-27T16:54:29.696Z,0.70
2022-09-27T16:57:00.078Z,0.60
2022-09-27T16:59:27.488Z,1.10
2022-09-27T17:01:57.754Z,0.90
2022-09-27T17:04:26.278Z,0.80
2022-09-27T17:06:53.193Z,0.80
2022-09-27T17:09:21.169Z,1.90
2022-09-27T17:11:48.330Z,0.70
2022-09-27T17:14:17.307Z,0.70
2022-09-27T17:16:45.593Z,0.40
2022-09-27T17:19:12.962Z,0.50
2022-09-27T17:21:40.742Z,0.67
2022-09-27T17:24:07.606Z,1.03
2022-09-27T17:26:34.311Z,0.80
2022-09-27T17:29:01.380Z,1.30
2022-09-27T17:31:31.425Z,1.27
2022-09-27T17:33:59.881Z,1.30
2022-09-27T17:36:29.911Z,1.20
2022-09-27T17:38:59.385Z,1.73
2022-09-27T17:41:27.271Z,0.60
2022-09-27T17:43:56.542Z,0.70
2022-09-27T17:46:26.367Z,0.80
2022-09-27T17:49:12.186Z,1.20
2022-09-27T17:51:40.764Z,1.10
2022-09-27T17:54:09.905Z,0.87
2022-09-27T17:56:38.317Z,1.30
2022-09-27T17:59:05.829Z,2.23
2022-09-27T18:01:32.903Z,1.80
2022-09-27T18:04:01.452Z,1.90
2022-09-27T18:06:29.335Z,1.93
2022-09-27T18:08:56.953Z,2.60
2022-09-27T18:11:29.057Z,2.83
2022-09-27T18:13:59.992Z,1.50
2022-09-27T18:16:32.981Z,1.00
2022-09-27T18:19:01.022Z,2.13
2022-09-27T18:21:29.147Z,1.53
2022-09-27T18:23:57.847Z,0.87
2022-09-27T18:26:27.108Z,0.60
2022-09-27T18:28:56.113Z,0.50
2022-09-27T18:31:26.380Z,0.60
2022-09-27T18:33:53.281Z,1.00
2022-09-27T18:36:23.064Z,0.93
2022-09-27T18:38:58.153Z,0.70
2022-09-27T18:41:27.086Z,0.90
2022-09-27T18:43:58.967Z,1.37
2022-09-27T18:46:35.477Z,0.87
2022-09-27T18:49:04.190Z,1.10
2022-09-27T18:51:30.980Z,0.90
2022-09-27T18:54:09.534Z,1.07
2022-09-27T18:56:39.190Z,0.60
2022-09-27T18:59:10.125Z,1.03
2022-09-27T19:01:41.637Z,0.87
2022-09-27T19:04:09.496Z,1.10
2022-09-27T19:06:37.713Z,1.20
2022-09-27T19:09:06.272Z,1.53
2022-09-27T19:11:34.118Z,1.53
2022-09-27T19:14:01.891Z,0.80
2022-09-27T19:16:29.562Z,0.83
2022-09-27T19:18:56.530Z,0.83
2022-09-27T19:21:25.878Z,0.90
2022-09-27T19:23:54.199Z,0.97
2022-09-27T19:26:23.813Z,1.20
2022-09-27T19:28:51.376Z,1.20
2022-09-27T19:31:26.088Z,0.97
2022-09-27T19:33:59.018Z,1.13
2022-09-27T19:36:26.962Z,0.80
2022-09-27T19:38:53.745Z,1.00
2022-09-27T19:41:20.546Z,1.10
2022-09-27T19:43:51.911Z,0.80
2022-09-27T19:46:19.683Z,0.90
2022-09-27T19:48:47.689Z,0.80
2022-09-27T19:51:20.228Z,0.60
2022-09-27T19:53:47.423Z,0.80
2022-09-27T19:56:14.877Z,0.70
2022-09-27T19:58:43.114Z,0.70
2022-09-27T20:01:11.790Z,0.80
2022-09-27T20:03:41.019Z,0.63
2022-09-27T20:06:10.073Z,0.60
2022-09-27T20:08:36.837Z,0.50
2022-09-27T20:11:10.923Z,0.40
2022-09-27T20:13:38.368Z,0.30
2022-09-27T20:16:10.934Z,0.40
2022-09-27T20:18:43.066Z,0.60
2022-09-27T20:21:10.241Z,0.50
2022-09-27T20:23:37.625Z,0.50
2022-09-27T20:26:07.601Z,0.60
2022-09-27T20:28:35.247Z,0.80
2022-09-27T20:31:04.151Z,0.63
2022-09-27T20:33:44.069Z,1.00
2022-09-27T20:36:24.084Z,1.00
2022-09-27T20:38:52.968Z,1.20
2022-09-27T20:41:21.758Z,0.90
2022-09-27T20:43:52.151Z,0.90
2022-09-27T20:46:20.021Z,0.83
2022-09-27T20:48:52.245Z,1.20
2022-09-27T20:51:19.000Z,0.77
2022-09-27T20:53:45.692Z,0.83
2022-09-27T20:56:27.067Z,0.73
2022-09-27T20:58:55.731Z,0.83
2022-09-27T21:01:24.320Z,0.90
2022-09-27T21:03:58.773Z,0.93
2022-09-27T21:06:27.047Z,0.50
2022-09-27T21:08:55.096Z,0.40
2022-09-27T21:11:22.661Z,0.43
2022-09-27T21:13:50.524Z,0.50
2022-09-27T21:16:25.590Z,0.33
2022-09-27T21:18:54.344Z,0.50
2022-09-27T21:21:22.474Z,0.60
2022-09-27T21:23:54.434Z,0.50
2022-09-27T21:26:22.293Z,0.60
2022-09-27T21:28:51.239Z,0.60
2022-09-27T21:31:23.859Z,0.40
2022-09-27T21:33:54.195Z,0.40
2022-09-27T21:36:22.808Z,0.60
2022-09-27T21:38:49.722Z,0.70
2022-09-27T21:41:16.846Z,0.40
2022-09-27T21:43:45.331Z,0.50
2022-09-27T21:46:19.880Z,0.47
2022-09-27T21:48:48.521Z,0.50
2022-09-27T21:51:18.298Z,0.60
2022-09-27T21:53:52.576Z,0.50
2022-09-27T21:56:22.612Z,0.60
2022-09-27T21:58:49.722Z,0.60
2022-09-27T22:01:21.972Z,0.80
2022-09-27T22:03:50.103Z,0.70
2022-09-27T22:06:19.109Z,0.70
2022-09-27T22:08:47.009Z,0.63
2022-09-27T22:11:25.335Z,0.67
2022-09-27T22:13:52.623Z,0.73
2022-09-27T22:16:21.013Z,0.60
2022-09-27T22:18:49.905Z,0.70
2022-09-27T22:21:25.426Z,0.70
2022-09-27T22:24:04.024Z,1.10
2022-09-27T22:26:36.156Z,0.70
2022-09-27T22:29:03.194Z,0.50
2022-09-27T22:31:29.913Z,0.70
2022-09-27T22:34:02.418Z,0.90
2022-09-27T22:36:29.953Z,0.80
2022-09-27T22:38:57.111Z,0.87
2022-09-27T22:41:24.211Z,0.87
2022-09-27T22:43:53.310Z,0.60
2022-09-27T22:46:20.872Z,0.70
2022-09-27T22:48:49.498Z,0.67
2022-09-27T22:51:16.499Z,0.50
2022-09-27T22:53:44.105Z,0.70
2022-09-27T22:56:20.436Z,0.60
2022-09-27T22:58:48.175Z,0.57
2022-09-27T23:01:19.197Z,0.50
2022-09-27T23:03:46.293Z,0.50
2022-09-27T23:47:52.784Z,0.53
2022-09-27T23:50:19.588Z,0.70
2022-09-27T23:52:46.177Z,0.60
2022-09-27T23:55:12.811Z,0.70
2022-09-27T23:57:39.453Z,0.93
